createdAt,value
2023-02-28T00:01:23.529Z,101359.88
2023-02-28T00:03:49.900Z,101346.25
2023-02-28T00:06:16.611Z,101344.53
2023-02-28T00:08:43.158Z,101342.16
2023-02-28T00:11:14.288Z,101347.47
2023-02-28T00:13:43.936Z,101340.75
2023-02-28T00:16:12.681Z,101345.69
2023-02-28T00:18:39.221Z,101349.31
2023-02-28T00:21:06.301Z,101347.50
2023-02-28T00:23:33.216Z,101348.78
2023-02-28T00:25:59.785Z,101354.09
2023-02-28T00:28:26.255Z,101347.44
2023-02-28T00:30:52.795Z,101345.31
2023-02-28T00:33:19.519Z,101356.38
2023-02-28T00:35:49.711Z,101343.78
2023-02-28T00:38:17.381Z,101346.63
2023-02-28T00:40:43.881Z,101347.56
2023-02-28T00:43:10.354Z,101355.75
2023-02-28T00:45:36.796Z,101353.25
2023-02-28T00:48:03.438Z,101351.28
2023-02-28T00:50:29.904Z,101341.28
2023-02-28T00:52:56.345Z,101337.94
2023-02-28T00:55:22.835Z,101346.78
2023-02-28T00:57:49.252Z,101347.28
2023-02-28T01:00:16.208Z,101339.88
2023-02-28T01:02:42.639Z,101347.56
2023-02-28T01:05:09.376Z,101344.06
2023-02-28T01:07:35.832Z,101349.91
2023-02-28T01:10:02.283Z,101345.28
2023-02-28T01:12:30.820Z,101340.97
2023-02-28T01:14:57.534Z,101340.69
2023-02-28T01:17:24.044Z,101337.94
2023-02-28T01:19:50.425Z,101338.41
2023-02-28T01:22:16.900Z,101342.78
2023-02-28T01:24:43.289Z,101340.88
2023-02-28T01:27:09.772Z,101340.44
2023-02-28T01:29:36.160Z,101339.66
2023-02-28T01:32:02.620Z,101331.72
2023-02-28T01:34:29.072Z,101339.41
2023-02-28T01:36:55.511Z,101338.63
2023-02-28T01:39:22.489Z,101339.56
2023-02-28T01:41:48.993Z,101336.06
2023-02-28T01:44:53.215Z,101335.97
2023-02-28T01:47:19.782Z,101331.38
2023-02-28T01:49:46.541Z,101333.72
2023-02-28T01:52:19.050Z,101327.88
2023-02-28T01:55:07.344Z,101321.09
2023-02-28T01:57:38.820Z,101328.81
2023-02-28T02:00:14.127Z,101332.09
2023-02-28T02:02:46.457Z,101327.91
2023-02-28T02:05:21.008Z,101334.81
2023-02-28T02:07:51.046Z,101321.72
2023-02-28T02:10:19.603Z,101325.84
2023-02-28T02:13:00.962Z,101322.06
2023-02-28T02:15:38.513Z,101315.88
2023-02-28T02:18:25.605Z,101314.94
2023-02-28T02:21:17.740Z,101316.44
2023-02-28T02:24:06.870Z,101313.44
2023-02-28T02:27:00.143Z,101318.38
2023-02-28T02:29:51.593Z,101313.91
2023-02-28T02:32:47.291Z,101315.56
2023-02-28T02:35:32.673Z,101309.88
2023-02-28T02:38:10.800Z,101306.97
2023-02-28T02:40:47.273Z,101307.28
2023-02-28T02:43:30.003Z,101310.25
2023-02-28T02:46:03.689Z,101311.97
2023-02-28T02:48:35.151Z,101312.88
2023-02-28T02:51:12.682Z,101301.66
2023-02-28T02:53:46.227Z,101315.31
2023-02-28T02:56:14.728Z,101309.38
2023-02-28T02:58:44.777Z,101310.22
2023-02-28T03:01:31.443Z,101310.97
2023-02-28T03:04:02.553Z,101313.72
2023-02-28T03:06:29.063Z,101315.84
2023-02-28T03:08:55.659Z,101308.25
2023-02-28T03:11:22.258Z,101303.88
2023-02-28T03:14:23.850Z,101310.97
2023-02-28T03:17:31.813Z,101307.63
2023-02-28T03:20:20.257Z,101298.91
2023-02-28T03:23:09.584Z,101305.03
2023-02-28T03:25:59.978Z,101310.97
2023-02-28T03:28:42.702Z,101302.75
2023-02-28T03:31:38.187Z,101309.97
2023-02-28T03:34:15.031Z,101301.47
2023-02-28T03:36:49.614Z,101303.88
2023-02-28T03:39:27.781Z,101299.25
2023-02-28T03:42:00.863Z,101299.44
2023-02-28T03:44:31.082Z,101302.06
2023-02-28T03:47:05.543Z,101298.66
2023-02-28T03:49:40.749Z,101299.31
2023-02-28T03:52:09.203Z,101297.41
2023-02-28T03:54:42.967Z,101309.00
2023-02-28T03:57:39.036Z,101306.28
2023-02-28T04:00:13.381Z,101307.97
2023-02-28T04:02:40.596Z,101308.22
2023-02-28T04:05:08.458Z,101314.06
2023-02-28T04:07:35.536Z,101309.72
2023-02-28T04:10:02.035Z,101311.31
2023-02-28T04:12:28.479Z,101306.09
2023-02-28T04:14:54.990Z,101306.06
2023-02-28T04:17:21.409Z,101307.81
2023-02-28T04:19:47.875Z,101313.13
2023-02-28T04:22:14.696Z,101315.31
2023-02-28T04:24:44.091Z,101316.53
2023-02-28T04:27:10.813Z,101315.56
2023-02-28T04:29:37.416Z,101318.72
2023-02-28T04:32:05.124Z,101319.38
2023-02-28T04:34:33.325Z,101309.53
2023-02-28T04:37:17.029Z,101315.78
2023-02-28T04:39:44.312Z,101308.88
2023-02-28T04:42:11.944Z,101310.56
2023-02-28T04:44:38.359Z,101310.78
2023-02-28T04:47:04.967Z,101309.28
2023-02-28T04:49:32.021Z,101313.41
2023-02-28T04:51:58.452Z,101313.28
2023-02-28T04:54:25.494Z,101308.31
2023-02-28T04:56:51.987Z,101313.13
2023-02-28T04:59:18.573Z,101312.38
2023-02-28T05:01:49.735Z,101315.00
2023-02-28T05:04:16.551Z,101314.66
2023-02-28T05:06:43.876Z,101307.16
2023-02-28T05:09:12.526Z,101313.56
2023-02-28T05:11:40.394Z,101311.84
2023-02-28T05:14:11.521Z,101322.28
2023-02-28T05:16:38.156Z,101319.75
2023-02-28T05:19:04.787Z,101318.50
2023-02-28T05:21:36.716Z,101323.56
2023-02-28T05:24:06.117Z,101321.25
2023-02-28T05:26:36.355Z,101321.06
2023-02-28T05:29:02.878Z,101321.28
2023-02-28T05:31:29.607Z,101313.97
2023-02-28T05:33:56.370Z,101322.13
2023-02-28T05:36:24.100Z,101320.47
2023-02-28T05:38:51.716Z,101319.63
2023-02-28T05:41:20.376Z,101328.28
2023-02-28T05:43:47.543Z,101325.06
2023-02-28T05:46:14.303Z,101328.44
2023-02-28T05:48:43.803Z,101325.69
2023-02-28T05:51:10.474Z,101330.06
2023-02-28T05:53:37.264Z,101336.72
2023-02-28T05:56:04.529Z,101338.78
2023-02-28T05:58:31.964Z,101327.50
2023-02-28T06:01:00.023Z,101326.84
2023-02-28T06:03:27.233Z,101332.81
2023-02-28T06:05:54.139Z,101336.53
2023-02-28T06:08:20.669Z,101329.28
2023-02-28T06:10:47.232Z,101336.16
2023-02-28T06:13:13.890Z,101329.31
2023-02-28T06:15:40.387Z,101333.78
2023-02-28T06:18:07.833Z,101336.06
2023-02-28T06:20:34.358Z,101335.59
2023-02-28T06:23:00.956Z,101323.16
2023-02-28T06:25:28.484Z,101335.97
2023-02-28T06:27:55.650Z,101335.50
2023-02-28T06:30:27.721Z,101334.50
2023-02-28T06:32:55.510Z,101345.94
2023-02-28T06:35:22.434Z,101335.50
2023-02-28T06:37:49.175Z,101341.84
2023-02-28T06:40:16.101Z,101342.25
2023-02-28T06:42:42.908Z,101338.06
2023-02-28T06:45:10.771Z,101350.09
2023-02-28T06:47:41.613Z,101353.78
2023-02-28T06:50:12.098Z,101355.63
2023-02-28T06:52:38.590Z,101357.88
2023-02-28T06:55:08.890Z,101356.38
2023-02-28T06:57:37.133Z,101362.63
2023-02-28T07:00:09.254Z,101363.97
2023-02-28T07:02:39.108Z,101363.13
2023-02-28T07:05:07.033Z,101375.81
2023-02-28T07:07:33.509Z,101371.56
2023-02-28T07:09:59.976Z,101372.19
2023-02-28T07:12:26.402Z,101362.81
2023-02-28T07:14:52.855Z,101368.81
2023-02-28T07:17:19.253Z,101365.72
2023-02-28T07:19:45.718Z,101372.34
2023-02-28T07:22:14.245Z,101367.38
2023-02-28T07:24:42.058Z,101354.47
2023-02-28T07:27:08.496Z,101363.56
2023-02-28T07:29:34.987Z,101366.25
2023-02-28T07:32:01.438Z,101367.53
2023-02-28T07:34:27.968Z,101371.16
2023-02-28T07:36:55.416Z,101367.31
2023-02-28T07:39:23.054Z,101364.59
2023-02-28T07:41:49.537Z,101370.88
2023-02-28T07:44:16.278Z,101367.47
2023-02-28T07:46:42.978Z,101368.66
2023-02-28T07:49:09.512Z,101368.19
2023-02-28T07:51:35.916Z,101376.38
2023-02-28T07:54:02.475Z,101375.50
2023-02-28T07:56:29.319Z,101368.00
2023-02-28T07:58:56.126Z,101377.47
2023-02-28T08:01:22.774Z,101380.03
2023-02-28T08:03:49.280Z,101378.38
2023-02-28T08:06:18.953Z,101372.03
2023-02-28T08:08:45.793Z,101382.22
2023-02-28T08:11:12.195Z,101373.16
2023-02-28T08:13:38.630Z,101376.28
2023-02-28T08:16:07.274Z,101380.75
2023-02-28T08:18:34.129Z,101377.47
2023-02-28T08:21:00.905Z,101368.91
2023-02-28T08:23:27.325Z,101377.94
2023-02-28T08:25:57.232Z,101384.84
2023-02-28T08:28:26.971Z,101386.22
2023-02-28T08:30:53.686Z,101378.31
2023-02-28T08:33:20.141Z,101384.41
2023-02-28T08:35:46.623Z,101386.91
2023-02-28T08:38:13.101Z,101386.00
2023-02-28T08:40:39.989Z,101392.88
2023-02-28T08:43:06.436Z,101376.97
2023-02-28T08:45:33.064Z,101392.31
2023-02-28T08:47:59.473Z,101382.16
2023-02-28T08:50:25.928Z,101394.06
2023-02-28T08:52:52.430Z,101391.03
2023-02-28T08:55:18.845Z,101383.25
2023-02-28T08:57:45.321Z,101381.59
2023-02-28T09:00:15.512Z,101392.94
2023-02-28T09:02:43.737Z,101387.75
2023-02-28T09:05:10.341Z,101391.31
2023-02-28T09:07:36.909Z,101394.44
2023-02-28T09:10:03.526Z,101395.78
2023-02-28T09:12:34.508Z,101394.78
2023-02-28T09:15:00.984Z,101397.00
2023-02-28T09:17:30.964Z,101383.94
2023-02-28T09:19:58.067Z,101385.75
2023-02-28T09:22:24.757Z,101380.75
2023-02-28T09:24:51.158Z,101391.63
2023-02-28T09:27:17.695Z,101381.66
2023-02-28T09:29:44.444Z,101389.44
2023-02-28T09:32:11.185Z,101392.63
2023-02-28T09:34:38.447Z,101373.69
2023-02-28T09:37:05.479Z,101375.47
2023-02-28T09:39:32.643Z,101380.22
2023-02-28T09:41:59.608Z,101383.34
2023-02-28T09:44:46.221Z,101382.44
2023-02-28T09:47:19.628Z,101388.81
2023-02-28T09:49:48.648Z,101389.88
2023-02-28T09:52:20.445Z,101384.78
2023-02-28T09:54:47.083Z,101395.91
2023-02-28T09:57:39.999Z,101384.00
2023-02-28T10:00:18.247Z,101391.94
2023-02-28T10:03:24.573Z,101377.66
2023-02-28T10:06:09.449Z,101376.78
2023-02-28T10:08:57.023Z,101371.00
2023-02-28T10:11:24.864Z,101387.41
2023-02-28T10:14:03.449Z,101388.72
2023-02-28T10:16:38.294Z,101384.06
2023-02-28T10:19:12.412Z,101387.78
2023-02-28T10:21:58.988Z,101383.72
2023-02-28T10:24:35.985Z,101386.75
2023-02-28T10:27:15.078Z,101382.28
2023-02-28T10:29:45.564Z,101384.72
2023-02-28T10:32:16.924Z,101381.44
2023-02-28T10:34:43.737Z,101384.06
2023-02-28T10:37:14.427Z,101373.44
2023-02-28T10:39:42.772Z,101393.28
2023-02-28T10:42:27.557Z,101375.75
2023-02-28T10:45:14.822Z,101392.88
2023-02-28T10:47:55.109Z,101381.56
2023-02-28T10:50:30.594Z,101396.19
2023-02-28T10:53:09.404Z,101386.88
2023-02-28T10:55:36.176Z,101379.88
2023-02-28T10:58:02.724Z,101379.22
2023-02-28T11:00:35.509Z,101376.16
2023-02-28T11:03:01.982Z,101365.03
2023-02-28T11:05:33.688Z,101365.91
2023-02-28T11:08:18.141Z,101371.28
2023-02-28T11:10:55.295Z,101363.72
2023-02-28T11:13:26.062Z,101360.81
2023-02-28T11:15:55.646Z,101362.22
2023-02-28T11:18:47.499Z,101361.06
2023-02-28T11:21:22.196Z,101352.91
2023-02-28T11:23:51.991Z,101356.06
2023-02-28T11:26:41.289Z,101341.28
2023-02-28T11:29:12.886Z,101376.84
2023-02-28T11:31:39.366Z,101357.50
2023-02-28T11:34:25.774Z,101357.53
2023-02-28T11:36:54.087Z,101348.22
2023-02-28T11:39:20.975Z,101343.09
2023-02-28T11:41:55.121Z,101344.06
2023-02-28T11:44:42.854Z,101333.44
2023-02-28T11:47:18.426Z,101342.41
2023-02-28T11:50:11.911Z,101338.06
2023-02-28T11:52:53.462Z,101332.31
2023-02-28T11:55:39.678Z,101332.22
2023-02-28T11:58:20.066Z,101329.47
2023-02-28T12:00:58.802Z,101338.84
2023-02-28T12:03:44.408Z,101335.31
2023-02-28T12:06:21.431Z,101333.00
2023-02-28T12:09:07.210Z,101341.84
2023-02-28T12:11:42.042Z,101332.13
2023-02-28T12:14:42.380Z,101325.84
2023-02-28T12:17:30.748Z,101322.50
2023-02-28T12:20:24.395Z,101317.25
2023-02-28T12:23:18.838Z,101317.44
2023-02-28T12:26:02.450Z,101326.53
2023-02-28T12:28:35.483Z,101317.66
2023-02-28T12:31:25.812Z,101310.78
2023-02-28T12:33:55.641Z,101315.16
2023-02-28T12:36:27.216Z,101314.78
2023-02-28T12:39:11.515Z,101321.09
2023-02-28T12:41:45.401Z,101321.09
2023-02-28T12:44:29.480Z,101335.88
2023-02-28T12:47:01.308Z,101312.16
2023-02-28T12:49:49.257Z,101303.75
2023-02-28T12:52:21.434Z,101307.41
2023-02-28T12:54:58.291Z,101310.28
2023-02-28T12:57:36.846Z,101304.34
2023-02-28T13:00:17.344Z,101309.41
2023-02-28T13:03:02.269Z,101304.34
2023-02-28T13:05:47.439Z,101305.81
2023-02-28T13:08:23.082Z,101306.75
2023-02-28T13:10:55.239Z,101292.03
2023-02-28T13:13:29.054Z,101306.00
2023-02-28T13:16:03.294Z,101295.41
2023-02-28T13:18:33.368Z,101297.34
2023-02-28T13:21:01.483Z,101305.03
2023-02-28T13:23:39.499Z,101301.47
2023-02-28T13:26:06.044Z,101287.50
2023-02-28T13:29:21.966Z,101296.31
2023-02-28T13:32:09.023Z,101295.53
2023-02-28T13:35:07.656Z,101285.53
2023-02-28T13:37:38.457Z,101302.63
2023-02-28T13:40:08.006Z,101286.53
2023-02-28T13:42:45.217Z,101290.19
2023-02-28T13:45:11.600Z,101289.44
2023-02-28T13:47:47.912Z,101290.16
2023-02-28T13:50:27.775Z,101301.81
2023-02-28T13:53:12.249Z,101302.47
2023-02-28T13:56:02.359Z,101296.44
2023-02-28T13:58:48.939Z,101284.19
2023-02-28T14:01:43.892Z,101295.44
2023-02-28T14:04:32.493Z,101278.13
2023-02-28T14:07:01.629Z,101290.44
2023-02-28T14:09:36.817Z,101285.09
2023-02-28T14:12:40.790Z,101286.75
2023-02-28T14:15:50.414Z,101272.75
2023-02-28T14:18:20.263Z,101282.47
2023-02-28T14:20:49.000Z,101275.22
2023-02-28T14:23:31.815Z,101277.16
2023-02-28T14:26:07.719Z,101283.19
2023-02-28T14:28:45.983Z,101280.69
2023-02-28T14:31:49.404Z,101273.66
2023-02-28T14:34:33.194Z,101281.50
2023-02-28T14:37:03.098Z,101275.22
2023-02-28T14:39:34.347Z,101277.16
2023-02-28T14:42:05.536Z,101271.03
2023-02-28T14:44:32.838Z,101263.09
2023-02-28T14:47:07.441Z,101263.94
2023-02-28T14:49:42.768Z,101266.63
2023-02-28T14:52:23.253Z,101256.13
2023-02-28T14:54:55.511Z,101258.69
2023-02-28T14:57:34.289Z,101250.78
2023-02-28T15:00:15.599Z,101258.69
2023-02-28T15:02:43.455Z,101260.38
2023-02-28T15:05:19.180Z,101263.97
2023-02-28T15:07:46.434Z,101255.13
2023-02-28T15:10:20.880Z,101256.94
2023-02-28T15:12:55.144Z,101249.88
2023-02-28T15:15:28.167Z,101250.78
2023-02-28T15:18:06.802Z,101249.00
2023-02-28T15:20:34.572Z,101258.69
2023-02-28T15:23:01.305Z,101258.59
2023-02-28T15:25:28.268Z,101265.66
2023-02-28T15:27:58.152Z,101264.75
2023-02-28T15:30:31.504Z,101260.19
2023-02-28T15:33:09.388Z,101275.19
2023-02-28T15:35:36.606Z,101268.09
2023-02-28T15:38:25.053Z,101266.25
2023-02-28T15:40:56.969Z,101260.25
2023-02-28T15:43:31.981Z,101267.06
2023-02-28T15:46:07.554Z,101258.41
2023-02-28T15:48:36.950Z,101271.56
2023-02-28T15:51:09.665Z,101259.22
2023-02-28T15:53:52.318Z,101265.31
2023-02-28T15:56:25.294Z,101272.44
2023-02-28T15:58:58.393Z,101271.59
2023-02-28T16:01:29.721Z,101272.50
2023-02-28T16:04:00.544Z,101273.38
2023-02-28T16:06:37.455Z,101282.94
2023-02-28T16:09:08.746Z,101282.03
2023-02-28T16:11:39.789Z,101291.69
2023-02-28T16:14:06.429Z,101278.44
2023-02-28T16:16:34.166Z,101277.53
2023-02-28T16:19:00.644Z,101287.25
2023-02-28T16:21:27.774Z,101288.91
2023-02-28T16:23:54.428Z,101280.13
2023-02-28T16:26:24.841Z,101292.38
2023-02-28T16:28:52.339Z,101287.19
2023-02-28T16:31:19.102Z,101282.69
2023-02-28T16:33:46.106Z,101287.06
2023-02-28T16:36:21.898Z,101288.81
2023-02-28T16:38:48.892Z,101290.59
2023-02-28T16:41:25.925Z,101284.31
2023-02-28T16:43:54.776Z,101292.22
2023-02-28T16:46:24.129Z,101293.97
2023-02-28T16:48:52.309Z,101283.25
2023-02-28T16:51:19.565Z,101292.94
2023-02-28T16:53:46.464Z,101294.47
2023-02-28T16:56:17.637Z,101298.84
2023-02-28T16:58:44.320Z,101289.28
2023-02-28T17:01:10.829Z,101300.56
2023-02-28T17:03:37.829Z,101298.75
2023-02-28T17:06:05.481Z,101303.91
2023-02-28T17:08:33.103Z,101307.31
2023-02-28T17:11:00.806Z,101307.28
2023-02-28T17:13:27.356Z,101307.22
2023-02-28T17:15:53.914Z,101314.97
2023-02-28T17:18:22.064Z,101327.22
2023-02-28T17:20:49.219Z,101328.97
2023-02-28T17:23:15.903Z,101335.91
2023-02-28T17:25:42.300Z,101334.94
2023-02-28T17:28:10.098Z,101332.19
2023-02-28T17:30:36.563Z,101332.13
2023-02-28T17:33:02.990Z,101346.03
2023-02-28T17:35:29.423Z,101353.03
2023-02-28T17:37:56.001Z,101349.28
2023-02-28T17:40:24.259Z,101351.94
2023-02-28T17:42:53.036Z,101353.69
2023-02-28T17:45:19.851Z,101360.81
2023-02-28T17:47:48.914Z,101358.91
2023-02-28T17:50:18.449Z,101357.03
2023-02-28T17:52:45.042Z,101364.84
2023-02-28T17:55:12.620Z,101363.75
2023-02-28T17:57:39.609Z,101369.97
2023-02-28T18:00:09.339Z,101371.63
2023-02-28T18:02:35.791Z,101371.31
2023-02-28T18:05:04.114Z,101380.06
2023-02-28T18:07:30.796Z,101381.63
2023-02-28T18:09:57.179Z,101376.38
2023-02-28T18:12:23.899Z,101372.97
2023-02-28T18:14:50.959Z,101371.94
2023-02-28T18:17:17.442Z,101372.47
2023-02-28T18:19:43.900Z,101373.41
2023-02-28T18:22:10.392Z,101373.38
2023-02-28T18:24:37.140Z,101370.97
2023-02-28T18:27:03.747Z,101376.38
2023-02-28T18:29:31.664Z,101373.41
2023-02-28T18:31:58.119Z,101379.47
2023-02-28T18:34:25.837Z,101370.91
2023-02-28T18:36:53.078Z,101370.50
2023-02-28T18:39:19.681Z,101370.19
2023-02-28T18:41:46.145Z,101372.34
2023-02-28T18:44:19.859Z,101368.75
2023-02-28T18:46:47.786Z,101369.81
2023-02-28T18:49:14.289Z,101373.06
2023-02-28T18:51:44.948Z,101374.19
2023-02-28T18:54:12.408Z,101381.72
2023-02-28T18:56:38.833Z,101377.06
2023-02-28T18:59:06.770Z,101378.22
2023-02-28T19:01:34.553Z,101378.06
2023-02-28T19:04:02.708Z,101378.84
2023-02-28T19:06:30.497Z,101374.53
2023-02-28T19:08:58.588Z,101372.28
2023-02-28T19:11:26.145Z,101365.94
2023-02-28T19:13:52.873Z,101363.88
2023-02-28T19:16:21.213Z,101368.94
2023-02-28T19:18:48.194Z,101368.34
2023-02-28T19:21:16.106Z,101369.25
2023-02-28T19:23:42.666Z,101364.53
2023-02-28T19:26:14.774Z,101368.75
2023-02-28T19:28:41.725Z,101379.97
2023-02-28T19:31:21.035Z,101375.84
2023-02-28T19:33:47.524Z,101377.47
2023-02-28T19:36:15.513Z,101377.34
2023-02-28T19:38:42.254Z,101387.63
2023-02-28T19:41:10.846Z,101381.94
2023-02-28T19:43:37.606Z,101378.75
2023-02-28T19:46:04.321Z,101377.59
2023-02-28T19:48:31.048Z,101386.88
2023-02-28T19:51:02.852Z,101378.75
2023-02-28T19:53:33.959Z,101382.06
2023-02-28T19:56:00.748Z,101376.47
2023-02-28T19:58:28.106Z,101381.78
2023-02-28T20:00:54.829Z,101378.22
2023-02-28T20:03:21.347Z,101388.03
2023-02-28T20:05:48.049Z,101386.28
2023-02-28T20:08:15.093Z,101385.84
2023-02-28T20:10:41.574Z,101379.03
2023-02-28T20:13:08.621Z,101389.72
2023-02-28T20:15:36.369Z,101384.88
2023-02-28T20:18:03.121Z,101381.44
2023-02-28T20:20:29.557Z,101379.00
2023-02-28T20:22:56.024Z,101383.28
2023-02-28T20:25:22.461Z,101385.16
2023-02-28T20:27:48.993Z,101387.78
2023-02-28T20:30:15.553Z,101376.50
2023-02-28T20:32:42.057Z,101372.25
2023-02-28T20:35:11.503Z,101372.44
2023-02-28T20:37:38.858Z,101373.38
2023-02-28T20:40:06.545Z,101374.81
2023-02-28T20:42:32.996Z,101374.81
2023-02-28T20:44:59.551Z,101373.03
2023-02-28T20:47:26.072Z,101375.88
2023-02-28T20:49:52.517Z,101372.41
2023-02-28T20:52:18.991Z,101371.50
2023-02-28T20:54:45.467Z,101367.56
2023-02-28T20:57:11.892Z,101367.97
2023-02-28T20:59:39.837Z,101364.34
2023-02-28T21:02:07.029Z,101375.63
2023-02-28T21:04:33.780Z,101369.59
2023-02-28T21:07:00.273Z,101361.94
2023-02-28T21:09:27.607Z,101370.25
2023-02-28T21:11:54.281Z,101366.03
2023-02-28T21:14:21.245Z,101371.53
2023-02-28T21:16:47.683Z,101368.13
2023-02-28T21:19:14.430Z,101362.13
2023-02-28T21:21:44.197Z,101356.84
2023-02-28T21:24:12.527Z,101362.75
2023-02-28T21:26:40.403Z,101353.16
2023-02-28T21:29:07.369Z,101354.03
2023-02-28T21:31:35.536Z,101348.59
2023-02-28T21:34:04.695Z,101351.41
2023-02-28T21:36:35.299Z,101354.09
2023-02-28T21:39:07.894Z,101357.38
2023-02-28T21:41:35.408Z,101349.50
2023-02-28T21:44:01.886Z,101354.03
2023-02-28T21:46:29.968Z,101346.09
2023-02-28T21:48:57.488Z,101335.25
2023-02-28T21:51:27.216Z,101343.31
2023-02-28T21:53:54.426Z,101339.81
2023-02-28T21:56:24.692Z,101341.88
2023-02-28T21:58:52.091Z,101344.72
2023-02-28T22:01:21.438Z,101345.16
2023-02-28T22:03:49.768Z,101345.81
2023-02-28T22:06:17.994Z,101342.19
2023-02-28T22:08:46.777Z,101349.06
2023-02-28T22:11:14.788Z,101349.09
2023-02-28T22:13:41.524Z,101360.47
2023-02-28T22:16:13.993Z,101361.91
2023-02-28T22:18:41.250Z,101354.09
2023-02-28T22:21:09.231Z,101351.56
2023-02-28T22:23:37.823Z,101351.31
2023-02-28T22:26:06.632Z,101348.78
2023-02-28T22:28:33.152Z,101361.72
2023-02-28T22:31:00.173Z,101352.97
2023-02-28T22:33:27.708Z,101348.69
2023-02-28T22:35:54.222Z,101355.09
2023-02-28T22:38:20.747Z,101354.03
2023-02-28T22:40:47.575Z,101355.59
2023-02-28T22:43:14.010Z,101351.25
2023-02-28T22:45:41.799Z,101349.63
2023-02-28T22:48:09.482Z,101361.06
2023-02-28T22:50:35.935Z,101359.25
2023-02-28T22:53:02.521Z,101359.22
2023-02-28T22:55:28.987Z,101365.34
2023-02-28T22:57:55.381Z,101353.66
2023-02-28T23:00:22.387Z,101357.59
2023-02-28T23:02:48.821Z,101361.28
2023-02-28T23:05:15.500Z,101357.34
2023-02-28T23:07:42.765Z,101366.22
2023-02-28T23:10:15.955Z,101366.50
2023-02-28T23:12:50.409Z,101366.59
2023-02-28T23:15:18.270Z,101365.69
2023-02-28T23:17:45.877Z,101366.44
2023-02-28T23:20:14.499Z,101366.78
2023-02-28T23:22:41.069Z,101364.09
2023-02-28T23:25:07.859Z,101365.97
2023-02-28T23:27:34.324Z,101376.22
2023-02-28T23:30:00.732Z,101369.69
2023-02-28T23:32:27.155Z,101368.22
2023-02-28T23:34:55.226Z,101374.91
2023-02-28T23:37:21.638Z,101364.88
2023-02-28T23:39:48.008Z,101366.84
2023-02-28T23:42:14.948Z,101371.31
2023-02-28T23:44:41.372Z,101367.59
2023-02-28T23:47:07.961Z,101371.00
2023-02-28T23:49:34.555Z,101381.22
2023-02-28T23:52:02.128Z,101380.09
2023-02-28T23:54:29.652Z,101370.88
2023-02-28T23:56:56.056Z,101372.94
2023-02-28T23:59:22.553Z,101373.25
